createdAt,value
2019-05-29T00:01:17.763Z,3.10
2019-05-29T00:03:41.364Z,1.67
2019-05-29T00:06:10.225Z,2.23
2019-05-29T00:08:38.223Z,3.23
2019-05-29T00:11:06.746Z,2.33
2019-05-29T00:13:34.797Z,2.30
2019-05-29T00:16:03.553Z,3.57
2019-05-29T00:18:31.634Z,7.40
2019-05-29T00:20:59.487Z,1.53
2019-05-29T00:23:27.363Z,3.20
2019-05-29T00:25:55.268Z,2.97
2019-05-29T00:28:23.578Z,1.70
2019-05-29T00:30:52.882Z,3.07
2019-05-29T00:33:21.715Z,3.87
2019-05-29T00:35:50.835Z,2.40
2019-05-29T00:38:18.863Z,2.63
2019-05-29T00:40:47.201Z,2.43
2019-05-29T00:43:15.624Z,2.20
2019-05-29T00:45:44.029Z,1.03
2019-05-29T00:48:12.126Z,1.47
2019-05-29T00:50:39.914Z,2.50
2019-05-29T00:53:08.102Z,3.00
2019-05-29T00:55:36.007Z,3.43
2019-05-29T00:58:06.430Z,1.63
2019-05-29T01:00:34.811Z,4.07
2019-05-29T01:03:03.053Z,3.27
2019-05-29T01:05:31.006Z,3.43
2019-05-29T01:07:58.784Z,3.97
2019-05-29T01:10:26.772Z,2.50
2019-05-29T01:12:54.905Z,5.70
2019-05-29T01:15:22.797Z,3.73
2019-05-29T01:17:50.611Z,1.77
2019-05-29T01:20:18.512Z,1.63
2019-05-29T01:22:46.428Z,3.77
2019-05-29T01:25:14.532Z,3.03
2019-05-29T01:27:42.533Z,0.77
2019-05-29T01:30:10.694Z,3.00
2019-05-29T01:32:38.614Z,4.67
2019-05-29T01:35:06.635Z,1.57
2019-05-29T01:37:34.872Z,2.37
2019-05-29T01:40:18.775Z,4.83
2019-05-29T01:42:35.191Z,1.67
2019-05-29T01:45:08.141Z,2.33
2019-05-29T01:47:34.405Z,2.57
2019-05-29T01:50:02.531Z,3.20
2019-05-29T01:52:32.158Z,1.47
2019-05-29T01:55:06.191Z,1.30
2019-05-29T01:57:38.165Z,1.63
2019-05-29T02:00:08.016Z,3.10
2019-05-29T02:02:38.551Z,2.93
2019-05-29T02:05:08.010Z,1.77
2019-05-29T02:07:39.621Z,2.17
2019-05-29T02:10:08.569Z,3.07
2019-05-29T02:12:38.228Z,2.03
2019-05-29T02:15:22.988Z,5.13
2019-05-29T02:17:39.802Z,3.07
2019-05-29T02:20:10.179Z,2.43
2019-05-29T02:22:40.063Z,3.67
2019-05-29T02:25:08.599Z,2.13
2019-05-29T02:27:36.709Z,2.67
2019-05-29T02:30:05.008Z,4.83
2019-05-29T02:32:33.030Z,3.37
2019-05-29T02:35:00.804Z,3.47
2019-05-29T02:37:29.048Z,1.93
2019-05-29T02:39:57.033Z,2.33
2019-05-29T02:42:25.233Z,1.77
2019-05-29T02:44:53.673Z,2.80
2019-05-29T02:47:21.724Z,3.53
2019-05-29T02:49:49.759Z,2.53
2019-05-29T02:52:17.706Z,4.87
2019-05-29T02:54:45.571Z,2.77
2019-05-29T02:57:13.637Z,5.33
2019-05-29T02:59:41.477Z,3.50
2019-05-29T03:02:09.552Z,1.93
2019-05-29T03:04:37.570Z,4.03
2019-05-29T03:07:05.599Z,2.87
2019-05-29T03:09:33.567Z,2.67
2019-05-29T03:12:01.499Z,3.37
2019-05-29T03:14:29.775Z,2.40
2019-05-29T03:16:59.722Z,3.43
2019-05-29T03:19:29.768Z,4.53
2019-05-29T03:21:58.386Z,3.33
2019-05-29T03:24:26.726Z,2.20
2019-05-29T03:26:56.079Z,3.40
2019-05-29T03:29:25.758Z,1.60
2019-05-29T03:31:53.780Z,2.37
2019-05-29T03:34:21.699Z,2.73
2019-05-29T03:37:08.772Z,5.83
2019-05-29T03:39:36.686Z,3.87
2019-05-29T03:42:04.743Z,2.53
2019-05-29T03:44:33.267Z,2.53
2019-05-29T03:47:02.414Z,3.37
2019-05-29T03:49:31.160Z,3.53
2019-05-29T03:51:59.319Z,3.93
2019-05-29T03:54:28.763Z,2.20
2019-05-29T03:56:57.047Z,2.97
2019-05-29T03:59:26.604Z,4.43
2019-05-29T04:01:54.814Z,5.80
2019-05-29T04:04:22.905Z,3.63
2019-05-29T04:06:50.979Z,2.23
2019-05-29T04:09:19.076Z,3.63
2019-05-29T04:11:47.079Z,3.47
2019-05-29T04:14:14.844Z,7.77
2019-05-29T04:16:58.371Z,5.10
2019-05-29T04:19:13.041Z,8.33
2019-05-29T04:21:42.129Z,11.73
2019-05-29T04:24:10.154Z,15.00
2019-05-29T04:26:39.591Z,15.60
2019-05-29T04:29:07.562Z,16.00
2019-05-29T04:31:36.569Z,10.53
2019-05-29T04:34:04.765Z,19.83
2019-05-29T04:36:33.380Z,26.40
2019-05-29T04:39:03.147Z,40.97
2019-05-29T04:41:32.683Z,44.80
2019-05-29T04:44:01.030Z,43.37
2019-05-29T04:46:30.002Z,51.17
2019-05-29T04:48:58.387Z,47.37
2019-05-29T04:51:26.301Z,42.40
2019-05-29T04:53:54.258Z,32.87
2019-05-29T04:56:22.305Z,26.97
2019-05-29T04:58:50.462Z,19.20
2019-05-29T05:01:18.408Z,22.27
2019-05-29T05:03:46.229Z,17.20
2019-05-29T05:06:14.288Z,15.27
2019-05-29T05:08:42.296Z,14.97
2019-05-29T05:11:10.059Z,11.80
2019-05-29T05:13:38.003Z,13.60
2019-05-29T05:16:05.765Z,12.00
2019-05-29T05:18:33.819Z,9.30
2019-05-29T05:21:01.667Z,6.27
2019-05-29T05:23:30.100Z,8.33
2019-05-29T05:25:58.219Z,7.93
2019-05-29T05:28:26.082Z,9.60
2019-05-29T05:30:53.987Z,8.33
2019-05-29T05:33:21.815Z,6.93
2019-05-29T05:35:49.708Z,5.23
2019-05-29T05:38:17.591Z,5.28
2019-05-29T05:40:45.637Z,6.00
2019-05-29T05:43:23.589Z,8.33
2019-05-29T05:45:43.245Z,6.03
2019-05-29T05:48:11.579Z,7.40
2019-05-29T05:50:39.547Z,6.37
2019-05-29T05:53:07.617Z,6.03
2019-05-29T05:55:35.589Z,6.90
2019-05-29T05:58:03.343Z,5.93
2019-05-29T06:00:33.808Z,5.13
2019-05-29T06:03:01.863Z,9.50
2019-05-29T06:05:29.725Z,5.57
2019-05-29T06:07:57.693Z,6.47
2019-05-29T06:10:25.801Z,8.57
2019-05-29T06:12:53.738Z,6.43
2019-05-29T06:15:21.904Z,5.53
2019-05-29T06:18:10.237Z,9.23
2019-05-29T06:20:19.586Z,8.00
2019-05-29T06:22:47.600Z,6.30
2019-05-29T06:25:15.813Z,5.03
2019-05-29T06:27:43.898Z,4.93
2019-05-29T06:30:12.003Z,7.23
2019-05-29T06:32:39.967Z,11.37
2019-05-29T06:35:07.888Z,14.30
2019-05-29T06:37:35.807Z,12.43
2019-05-29T06:40:04.336Z,7.23
2019-05-29T06:42:32.206Z,7.27
2019-05-29T06:45:00.365Z,5.33
2019-05-29T06:47:28.450Z,9.70
2019-05-29T06:49:56.305Z,5.73
2019-05-29T06:52:24.102Z,6.67
2019-05-29T06:54:51.942Z,6.07
2019-05-29T06:57:19.815Z,6.17
2019-05-29T06:59:48.924Z,5.00
2019-05-29T07:02:16.996Z,5.00
2019-05-29T07:04:44.763Z,5.40
2019-05-29T07:07:12.809Z,5.13
2019-05-29T07:09:41.086Z,5.43
2019-05-29T07:12:09.054Z,6.87
2019-05-29T07:14:38.109Z,3.03
2019-05-29T07:17:05.905Z,8.57
2019-05-29T07:19:47.531Z,5.13
2019-05-29T07:22:03.469Z,6.50
2019-05-29T07:24:31.359Z,5.17
2019-05-29T07:26:59.265Z,3.43
2019-05-29T07:29:27.237Z,4.53
2019-05-29T07:31:55.178Z,3.97
2019-05-29T07:34:23.183Z,5.77
2019-05-29T07:36:51.156Z,7.27
2019-05-29T07:39:19.054Z,5.97
2019-05-29T07:41:47.743Z,2.83
2019-05-29T07:44:15.758Z,2.87
2019-05-29T07:46:45.260Z,3.53
2019-05-29T07:49:13.395Z,8.10
2019-05-29T07:51:43.343Z,3.67
2019-05-29T07:54:10.964Z,4.77
2019-05-29T07:56:38.842Z,2.67
2019-05-29T07:59:06.743Z,3.20
2019-05-29T08:01:34.673Z,7.73
2019-05-29T08:04:02.757Z,3.67
2019-05-29T08:06:30.681Z,3.13
2019-05-29T08:08:58.575Z,4.53
2019-05-29T08:11:26.539Z,4.27
2019-05-29T08:13:54.546Z,3.43
2019-05-29T08:16:22.503Z,4.10
2019-05-29T08:18:52.902Z,5.17
2019-05-29T08:21:20.244Z,5.70
2019-05-29T08:23:48.593Z,2.40
2019-05-29T08:26:16.605Z,2.27
2019-05-29T08:28:44.737Z,1.80
2019-05-29T08:31:12.781Z,4.70
2019-05-29T08:33:40.836Z,4.57
2019-05-29T08:36:09.818Z,3.67
2019-05-29T08:38:37.810Z,3.33
2019-05-29T08:41:06.036Z,5.60
2019-05-29T08:43:34.043Z,5.77
2019-05-29T08:46:01.894Z,3.43
2019-05-29T08:48:29.759Z,4.23
2019-05-29T08:50:57.682Z,5.40
2019-05-29T08:53:25.719Z,4.63
2019-05-29T08:55:53.679Z,6.70
2019-05-29T08:58:22.281Z,5.37
2019-05-29T09:00:53.576Z,4.40
2019-05-29T09:03:19.967Z,3.77
2019-05-29T09:06:01.516Z,3.63
2019-05-29T09:08:17.755Z,4.67
2019-05-29T09:10:47.108Z,5.43
2019-05-29T09:13:15.337Z,2.80
2019-05-29T09:15:43.251Z,4.97
2019-05-29T09:18:11.115Z,4.73
2019-05-29T09:21:00.990Z,5.40
2019-05-29T09:23:08.919Z,3.90
2019-05-29T09:25:36.777Z,5.40
2019-05-29T09:28:14.022Z,4.03
2019-05-29T09:30:42.016Z,6.33
2019-05-29T09:33:09.987Z,3.97
2019-05-29T09:35:37.918Z,4.27
2019-05-29T09:38:05.842Z,4.90
2019-05-29T09:40:33.822Z,3.63
2019-05-29T09:43:01.903Z,5.83
2019-05-29T09:45:30.085Z,4.37
2019-05-29T09:47:58.017Z,8.87
2019-05-29T09:50:27.656Z,8.17
2019-05-29T09:52:57.180Z,6.97
2019-05-29T09:55:25.493Z,4.33
2019-05-29T09:57:54.108Z,5.60
2019-05-29T10:00:23.195Z,7.87
2019-05-29T10:02:51.034Z,8.33
2019-05-29T10:05:18.955Z,10.37
2019-05-29T10:07:47.090Z,5.73
2019-05-29T10:10:15.263Z,6.20
2019-05-29T10:12:43.263Z,6.37
2019-05-29T10:15:11.715Z,9.47
2019-05-29T10:17:39.885Z,8.27
2019-05-29T10:20:08.296Z,6.57
2019-05-29T10:22:36.111Z,4.87
2019-05-29T10:25:04.174Z,6.33
2019-05-29T10:27:32.106Z,8.30
2019-05-29T10:30:00.010Z,6.53
2019-05-29T10:32:28.011Z,5.10
2019-05-29T10:34:55.997Z,6.03
2019-05-29T10:37:24.045Z,5.83
2019-05-29T10:39:53.009Z,7.60
2019-05-29T10:42:21.091Z,8.00
2019-05-29T10:44:49.089Z,11.70
2019-05-29T10:47:17.042Z,16.63
2019-05-29T10:49:45.531Z,11.47
2019-05-29T10:52:16.411Z,13.60
2019-05-29T10:54:44.029Z,10.20
2019-05-29T10:57:12.135Z,6.93
2019-05-29T10:59:40.034Z,4.77
2019-05-29T11:02:08.006Z,6.60
2019-05-29T11:04:35.900Z,6.57
2019-05-29T11:07:03.886Z,5.83
2019-05-29T11:09:44.156Z,6.70
2019-05-29T11:12:01.778Z,5.43
2019-05-29T11:14:29.724Z,3.87
2019-05-29T11:16:57.732Z,4.40
2019-05-29T11:19:26.224Z,3.43
2019-05-29T11:21:59.511Z,6.53
2019-05-29T11:24:23.864Z,2.37
2019-05-29T11:26:52.534Z,5.07
2019-05-29T11:29:20.586Z,3.80
2019-05-29T11:31:48.570Z,3.37
2019-05-29T11:34:16.472Z,3.27
2019-05-29T11:36:44.384Z,4.17
2019-05-29T11:39:13.206Z,8.73
2019-05-29T11:41:41.175Z,6.67
2019-05-29T11:44:09.202Z,4.60
2019-05-29T11:46:37.076Z,5.00
2019-05-29T11:49:04.900Z,5.73
2019-05-29T11:51:32.807Z,6.93
2019-05-29T11:54:02.326Z,6.10
2019-05-29T11:56:30.511Z,3.97
2019-05-29T11:58:58.997Z,4.27
2019-05-29T12:01:27.055Z,5.57
2019-05-29T12:04:18.104Z,4.77
2019-05-29T12:06:24.720Z,4.63
2019-05-29T12:08:53.648Z,4.70
2019-05-29T12:11:22.063Z,3.97
2019-05-29T12:13:49.974Z,3.33
2019-05-29T12:16:18.015Z,5.63
2019-05-29T12:18:46.968Z,3.87
2019-05-29T12:21:14.879Z,2.60
2019-05-29T12:23:42.739Z,5.90
2019-05-29T12:26:21.499Z,6.00
2019-05-29T12:28:40.525Z,5.17
2019-05-29T12:31:08.512Z,3.63
2019-05-29T12:33:36.294Z,3.53
2019-05-29T12:36:04.324Z,4.07
2019-05-29T12:38:32.165Z,3.87
2019-05-29T12:41:01.634Z,6.83
2019-05-29T12:43:29.774Z,4.13
2019-05-29T12:45:57.897Z,10.40
2019-05-29T12:48:25.849Z,4.80
2019-05-29T12:50:54.160Z,6.23
2019-05-29T12:53:30.014Z,2.87
2019-05-29T12:55:53.995Z,9.23
2019-05-29T12:58:22.097Z,4.67
2019-05-29T13:00:49.959Z,7.47
2019-05-29T13:03:17.887Z,3.47
2019-05-29T13:05:45.837Z,8.53
2019-05-29T13:08:13.983Z,2.60
2019-05-29T13:10:42.022Z,2.70
2019-05-29T13:13:11.198Z,3.63
2019-05-29T13:15:39.408Z,6.50
2019-05-29T13:18:09.998Z,4.20
2019-05-29T13:20:37.078Z,1.63
2019-05-29T13:23:07.111Z,6.13
2019-05-29T13:25:35.159Z,3.00
2019-05-29T13:28:04.346Z,4.37
2019-05-29T13:30:32.649Z,5.17
2019-05-29T13:33:04.715Z,4.47
2019-05-29T13:35:30.351Z,3.13
2019-05-29T13:37:58.888Z,2.07
2019-05-29T13:40:26.920Z,2.73
2019-05-29T13:42:56.133Z,3.67
2019-05-29T13:45:24.432Z,2.10
2019-05-29T13:47:52.359Z,5.20
2019-05-29T13:50:20.327Z,3.33
2019-05-29T13:52:48.091Z,4.80
2019-05-29T13:55:16.439Z,4.43
2019-05-29T13:57:44.409Z,6.23
2019-05-29T14:00:33.941Z,6.20
2019-05-29T14:02:44.272Z,4.03
2019-05-29T14:05:13.021Z,6.17
2019-05-29T14:07:40.992Z,5.90
2019-05-29T14:10:09.692Z,5.83
2019-05-29T14:12:37.851Z,10.00
2019-05-29T14:15:06.447Z,6.17
2019-05-29T14:17:34.857Z,7.70
2019-05-29T14:20:03.117Z,8.93
2019-05-29T14:22:31.139Z,10.60
2019-05-29T14:24:59.061Z,8.67
2019-05-29T14:27:26.976Z,6.83
2019-05-29T14:29:54.845Z,9.87
2019-05-29T14:32:22.808Z,8.93
2019-05-29T14:34:50.693Z,10.00
2019-05-29T14:37:18.867Z,8.37
2019-05-29T14:39:46.785Z,9.47
2019-05-29T14:42:14.705Z,11.67
2019-05-29T14:44:42.773Z,14.70
2019-05-29T14:47:13.297Z,14.27
2019-05-29T14:49:41.169Z,14.47
2019-05-29T14:52:09.158Z,9.77
2019-05-29T14:54:41.670Z,10.67
2019-05-29T14:57:17.406Z,10.63
2019-05-29T14:59:36.532Z,13.30
2019-05-29T15:02:07.569Z,10.23
2019-05-29T15:04:34.394Z,11.23
2019-05-29T15:07:03.634Z,9.87
2019-05-29T15:09:32.082Z,6.97
2019-05-29T15:11:59.925Z,6.53
2019-05-29T15:14:27.907Z,8.07
2019-05-29T15:16:55.816Z,5.67
2019-05-29T15:19:23.938Z,11.23
2019-05-29T15:21:51.950Z,9.17
2019-05-29T15:24:19.810Z,10.73
2019-05-29T15:26:47.741Z,9.77
2019-05-29T15:29:17.893Z,8.47
2019-05-29T15:31:45.466Z,11.50
2019-05-29T15:34:14.356Z,8.90
2019-05-29T15:36:42.604Z,11.47
2019-05-29T15:39:10.809Z,7.67
2019-05-29T15:41:38.848Z,8.67
2019-05-29T15:44:07.123Z,7.67
2019-05-29T15:46:35.030Z,10.00
2019-05-29T15:49:03.023Z,6.80
2019-05-29T15:51:31.131Z,7.63
2019-05-29T15:53:59.131Z,9.23
2019-05-29T15:56:28.299Z,4.37
2019-05-29T15:58:56.450Z,5.73
2019-05-29T16:01:24.367Z,9.13
2019-05-29T16:03:52.387Z,4.87
2019-05-29T16:06:20.265Z,6.63
2019-05-29T16:08:48.171Z,12.80
2019-05-29T16:11:16.793Z,5.83
2019-05-29T16:13:44.879Z,6.23
2019-05-29T16:16:13.143Z,5.87
2019-05-29T16:18:41.447Z,8.40
2019-05-29T16:21:10.629Z,8.17
2019-05-29T16:23:38.760Z,8.70
2019-05-29T16:26:06.888Z,10.03
2019-05-29T16:28:35.065Z,14.03
2019-05-29T16:31:03.221Z,5.90
2019-05-29T16:33:31.206Z,10.87
2019-05-29T16:35:59.188Z,8.83
2019-05-29T16:38:27.182Z,9.80
2019-05-29T16:40:55.095Z,7.77
2019-05-29T16:43:22.965Z,8.17
2019-05-29T16:45:51.055Z,8.30
2019-05-29T16:48:18.893Z,7.17
2019-05-29T16:50:46.753Z,7.87
2019-05-29T16:53:14.745Z,7.83
2019-05-29T16:55:53.462Z,8.67
2019-05-29T16:58:12.977Z,6.63
2019-05-29T17:00:41.027Z,8.77
2019-05-29T17:03:08.960Z,10.30
2019-05-29T17:05:36.826Z,8.73
2019-05-29T17:08:05.835Z,8.13
2019-05-29T17:10:34.654Z,7.27
2019-05-29T17:13:02.980Z,8.53
2019-05-29T17:15:30.901Z,7.37
2019-05-29T17:17:58.864Z,5.80
2019-05-29T17:20:45.051Z,7.60
2019-05-29T17:23:14.903Z,9.33
2019-05-29T17:25:43.033Z,10.30
2019-05-29T17:28:10.938Z,10.63
2019-05-29T17:30:38.843Z,8.37
2019-05-29T17:33:07.023Z,9.87
2019-05-29T17:35:35.014Z,8.17
2019-05-29T17:38:02.839Z,10.40
2019-05-29T17:40:30.810Z,9.27
2019-05-29T17:42:58.745Z,9.07
2019-05-29T17:45:51.239Z,10.87
2019-05-29T17:48:19.730Z,11.17
2019-05-29T17:50:47.774Z,11.20
2019-05-29T17:53:15.822Z,9.93
2019-05-29T17:55:46.609Z,12.20
2019-05-29T17:58:13.433Z,13.77
2019-05-29T18:00:41.387Z,14.77
2019-05-29T18:03:09.315Z,11.77
2019-05-29T18:05:37.238Z,12.47
2019-05-29T18:08:05.090Z,17.03
2019-05-29T18:10:34.030Z,14.20
2019-05-29T18:13:01.950Z,13.50
2019-05-29T18:15:29.931Z,12.57
2019-05-29T18:17:57.823Z,17.50
2019-05-29T18:20:25.911Z,16.17
2019-05-29T18:22:54.094Z,11.00
2019-05-29T18:25:22.136Z,12.67
2019-05-29T18:27:49.983Z,15.73
2019-05-29T18:30:18.343Z,12.10
2019-05-29T18:32:46.258Z,13.67
2019-05-29T18:35:14.174Z,15.20
2019-05-29T18:37:42.047Z,9.17
2019-05-29T18:40:12.573Z,11.20
2019-05-29T18:42:40.127Z,10.03
2019-05-29T18:45:20.294Z,13.33
2019-05-29T18:47:39.874Z,13.93
2019-05-29T18:50:08.048Z,12.40
2019-05-29T18:52:36.017Z,9.07
2019-05-29T18:55:04.519Z,12.57
2019-05-29T18:57:33.977Z,12.60
2019-05-29T19:00:01.835Z,4.90
2019-05-29T19:02:29.847Z,11.10
2019-05-29T19:04:57.902Z,7.57
2019-05-29T19:07:25.792Z,8.40
2019-05-29T19:09:53.649Z,5.50
2019-05-29T19:12:21.777Z,16.13
2019-05-29T19:14:49.650Z,7.80
2019-05-29T19:17:17.756Z,12.57
2019-05-29T19:19:45.713Z,10.57
2019-05-29T19:22:13.878Z,12.50
2019-05-29T19:24:41.876Z,15.03
2019-05-29T19:27:10.028Z,6.57
2019-05-29T19:29:37.996Z,12.33
2019-05-29T19:32:05.986Z,12.50
2019-05-29T19:34:34.035Z,9.00
2019-05-29T19:37:01.889Z,11.93
2019-05-29T19:39:30.283Z,8.40
2019-05-29T19:41:58.266Z,9.67
2019-05-29T19:44:26.300Z,10.53
2019-05-29T19:46:54.493Z,11.87
2019-05-29T19:49:22.345Z,12.50
2019-05-29T19:51:50.209Z,10.33
2019-05-29T19:54:18.308Z,9.87
2019-05-29T19:56:46.366Z,6.73
2019-05-29T19:59:14.437Z,10.07
2019-05-29T20:01:42.615Z,8.53
2019-05-29T20:04:10.887Z,11.93
2019-05-29T20:06:38.989Z,11.80
2019-05-29T20:09:07.131Z,7.57
2019-05-29T20:11:35.601Z,9.80
2019-05-29T20:14:07.423Z,13.23
2019-05-29T20:16:34.207Z,22.80
2019-05-29T20:19:02.514Z,11.70
2019-05-29T20:21:30.591Z,11.90
2019-05-29T20:23:58.554Z,11.03
2019-05-29T20:26:26.479Z,7.90
2019-05-29T20:28:54.345Z,9.67
2019-05-29T20:31:22.534Z,8.70
2019-05-29T20:33:50.706Z,9.83
2019-05-29T20:36:20.006Z,6.80
2019-05-29T20:38:47.975Z,8.40
2019-05-29T20:41:16.045Z,11.63
2019-05-29T20:43:43.991Z,7.03
2019-05-29T20:46:12.000Z,10.07
2019-05-29T20:48:39.925Z,9.07
2019-05-29T20:51:07.953Z,14.17
2019-05-29T20:53:37.419Z,8.57
2019-05-29T20:56:05.700Z,9.43
2019-05-29T20:58:33.752Z,10.80
2019-05-29T21:01:03.418Z,11.37
2019-05-29T21:03:32.223Z,9.37
2019-05-29T21:06:00.490Z,13.67
2019-05-29T21:08:28.451Z,18.23
2019-05-29T21:10:56.585Z,16.33
2019-05-29T21:13:24.655Z,14.17
2019-05-29T21:15:52.751Z,11.47
2019-05-29T21:18:20.775Z,12.77
2019-05-29T21:20:48.868Z,15.50
2019-05-29T21:23:17.039Z,10.20
2019-05-29T21:25:45.034Z,11.30
2019-05-29T21:28:12.846Z,11.30
2019-05-29T21:30:41.728Z,12.23
2019-05-29T21:33:09.593Z,8.23
2019-05-29T21:35:38.014Z,12.60
2019-05-29T21:38:06.121Z,11.40
2019-05-29T21:40:34.356Z,10.53
2019-05-29T21:43:02.425Z,11.27
2019-05-29T21:45:30.357Z,9.43
2019-05-29T21:47:58.363Z,12.13
2019-05-29T21:50:26.230Z,8.40
2019-05-29T21:52:54.110Z,12.47
2019-05-29T21:55:22.051Z,11.10
2019-05-29T21:57:50.388Z,8.33
2019-05-29T22:00:26.523Z,9.43
2019-05-29T22:02:54.778Z,7.33
2019-05-29T22:05:22.830Z,8.73
2019-05-29T22:07:50.941Z,7.60
2019-05-29T22:10:19.059Z,6.97
2019-05-29T22:12:47.031Z,9.50
2019-05-29T22:15:15.564Z,10.03
2019-05-29T22:17:43.492Z,6.73
2019-05-29T22:20:14.093Z,5.70
2019-05-29T22:22:42.311Z,6.47
2019-05-29T22:25:10.049Z,3.50
2019-05-29T22:27:38.850Z,6.83
2019-05-29T22:30:25.913Z,4.27
2019-05-29T22:32:53.821Z,6.80
2019-05-29T22:35:22.004Z,7.07
2019-05-29T22:37:51.546Z,9.57
2019-05-29T22:40:19.595Z,4.10
2019-05-29T22:42:47.545Z,4.10
2019-05-29T22:45:17.409Z,8.57
2019-05-29T22:47:51.642Z,8.03
2019-05-29T22:50:19.700Z,9.40
2019-05-29T22:52:49.679Z,7.53
2019-05-29T22:55:18.345Z,3.63
2019-05-29T22:57:46.258Z,6.67
2019-05-29T23:00:15.203Z,5.20
2019-05-29T23:02:43.068Z,5.80
2019-05-29T23:05:11.262Z,6.23
2019-05-29T23:07:39.253Z,7.17
2019-05-29T23:10:07.290Z,6.70
2019-05-29T23:12:35.191Z,5.63
2019-05-29T23:15:03.429Z,6.53
2019-05-29T23:17:31.424Z,5.20
2019-05-29T23:20:00.592Z,5.60
2019-05-29T23:22:28.683Z,4.50
2019-05-29T23:24:56.767Z,5.00
2019-05-29T23:27:24.750Z,4.17
2019-05-29T23:29:52.759Z,8.33
2019-05-29T23:32:20.644Z,5.63
2019-05-29T23:34:48.751Z,4.53
2019-05-29T23:37:16.695Z,7.53
2019-05-29T23:39:44.564Z,4.20
2019-05-29T23:42:12.542Z,2.33
2019-05-29T23:44:40.379Z,2.63
2019-05-29T23:47:08.471Z,6.60
2019-05-29T23:49:36.385Z,6.50
2019-05-29T23:52:05.028Z,5.33
2019-05-29T23:54:33.079Z,5.80
2019-05-29T23:57:01.986Z,5.53
2019-05-29T23:59:30.074Z,4.67
